createdAt,value
2023-04-29T00:02:52.714Z,8.98
2023-04-29T00:07:54.297Z,8.40
2023-04-29T00:12:55.717Z,8.60
2023-04-29T00:17:57.160Z,8.45
2023-04-29T00:22:58.769Z,9.38
2023-04-29T00:28:02.196Z,8.52
2023-04-29T00:33:03.883Z,9.65
2023-04-29T00:38:05.344Z,10.38
2023-04-29T00:43:06.885Z,10.77
2023-04-29T00:48:08.375Z,9.45
2023-04-29T00:53:12.372Z,11.10
2023-04-29T00:58:13.907Z,9.52
2023-04-29T01:03:15.744Z,10.57
2023-04-29T01:08:27.541Z,10.07
2023-04-29T01:13:50.458Z,10.20
2023-04-29T01:18:56.434Z,11.02
2023-04-29T01:23:58.226Z,10.93
2023-04-29T01:29:17.046Z,11.32
2023-04-29T01:34:27.434Z,11.43
2023-04-29T01:39:28.790Z,13.02
2023-04-29T01:44:31.865Z,12.43
2023-04-29T01:49:35.704Z,12.25
2023-04-29T01:54:37.218Z,12.32
2023-04-29T01:59:38.678Z,12.05
2023-04-29T02:04:40.275Z,11.02
2023-04-29T02:09:41.657Z,11.57
2023-04-29T02:14:43.088Z,10.23
2023-04-29T02:19:44.532Z,10.07
2023-04-29T02:24:45.986Z,8.43
2023-04-29T02:29:47.363Z,8.60
2023-04-29T02:34:49.300Z,8.70
2023-04-29T02:39:50.902Z,9.07
2023-04-29T02:44:52.592Z,10.23
2023-04-29T02:49:54.378Z,23.20
2023-04-29T02:54:56.002Z,11.80
2023-04-29T02:59:57.486Z,11.25
2023-04-29T03:04:58.937Z,11.27
2023-04-29T03:10:00.642Z,10.98
2023-04-29T03:15:02.117Z,10.20
2023-04-29T03:20:04.054Z,8.75
2023-04-29T03:25:07.102Z,9.75
2023-04-29T03:30:09.032Z,9.95
2023-04-29T03:35:14.144Z,9.55
2023-04-29T03:40:16.917Z,9.57
2023-04-29T03:45:18.378Z,8.88
2023-04-29T03:50:19.834Z,8.27
2023-04-29T03:55:21.331Z,8.75
2023-04-29T04:00:22.742Z,8.75
2023-04-29T04:05:25.307Z,9.52
2023-04-29T04:10:28.331Z,9.43
2023-04-29T04:15:29.763Z,9.55
2023-04-29T04:20:31.248Z,10.32
2023-04-29T04:25:32.596Z,7.97
2023-04-29T04:30:35.566Z,7.40
2023-04-29T04:35:37.053Z,7.43
2023-04-29T04:40:41.186Z,7.70
2023-04-29T04:45:43.649Z,7.88
2023-04-29T04:50:45.078Z,9.23
2023-04-29T04:55:46.926Z,8.85
2023-04-29T05:00:48.753Z,7.70
2023-04-29T05:05:56.692Z,7.47
2023-04-29T05:10:58.703Z,9.80
2023-04-29T05:16:02.876Z,8.05
2023-04-29T05:21:06.026Z,8.82
2023-04-29T05:26:07.417Z,8.18
2023-04-29T05:31:09.631Z,8.63
2023-04-29T05:36:11.206Z,7.70
2023-04-29T05:41:14.151Z,8.77
2023-04-29T05:46:16.562Z,7.53
2023-04-29T05:51:18.012Z,8.40
2023-04-29T05:56:20.029Z,8.00
2023-04-29T06:01:21.729Z,7.15
2023-04-29T06:06:23.388Z,7.35
2023-04-29T06:11:24.839Z,8.07
2023-04-29T06:16:26.511Z,6.40
2023-04-29T06:21:28.160Z,7.00
2023-04-29T06:26:29.605Z,6.55
2023-04-29T06:31:31.041Z,6.53
2023-04-29T06:36:33.057Z,6.05
2023-04-29T06:41:34.900Z,6.32
2023-04-29T06:46:36.410Z,6.30
2023-04-29T06:51:38.010Z,5.53
2023-04-29T06:56:39.517Z,5.25
2023-04-29T07:01:43.537Z,6.10
2023-04-29T07:06:47.093Z,5.43
2023-04-29T07:11:48.716Z,5.20
2023-04-29T07:16:53.509Z,5.03
2023-04-29T07:21:54.983Z,5.13
2023-04-29T07:26:57.341Z,5.15
2023-04-29T07:31:58.662Z,5.40
2023-04-29T07:37:00.022Z,5.40
2023-04-29T07:42:03.130Z,5.60
2023-04-29T07:47:05.063Z,6.30
2023-04-29T07:52:07.768Z,5.00
2023-04-29T07:57:09.247Z,5.90
2023-04-29T08:02:10.694Z,4.93
2023-04-29T08:07:12.843Z,4.65
2023-04-29T08:12:14.211Z,4.35
2023-04-29T08:17:15.789Z,5.32
2023-04-29T08:22:17.150Z,5.38
2023-04-29T08:27:18.781Z,4.70
2023-04-29T08:32:20.239Z,4.53
2023-04-29T08:37:22.483Z,4.82
2023-04-29T08:42:32.258Z,4.97
2023-04-29T08:47:36.388Z,5.00
2023-04-29T08:52:37.805Z,4.88
2023-04-29T08:57:40.143Z,4.82
2023-04-29T09:02:47.333Z,4.50
2023-04-29T09:07:50.339Z,4.95
2023-04-29T09:12:51.825Z,5.35
2023-04-29T09:17:53.723Z,4.88
2023-04-29T09:22:56.445Z,4.97
2023-04-29T09:27:58.171Z,4.43
2023-04-29T09:33:04.516Z,4.82
2023-04-29T09:38:13.294Z,4.25
2023-04-29T09:43:18.998Z,5.15
2023-04-29T09:48:20.420Z,4.75
2023-04-29T09:53:28.699Z,4.68
2023-04-29T09:58:31.837Z,4.30
2023-04-29T10:03:38.418Z,4.70
2023-04-29T10:08:41.589Z,4.38
2023-04-29T10:13:43.980Z,3.83
2023-04-29T10:18:49.160Z,4.30
2023-04-29T10:23:52.750Z,4.40
2023-04-29T10:28:55.581Z,4.30
2023-04-29T10:34:01.047Z,3.28
2023-04-29T10:39:04.368Z,3.42
2023-04-29T10:44:05.828Z,3.58
2023-04-29T10:49:07.526Z,3.88
2023-04-29T10:54:10.772Z,4.13
2023-04-29T10:59:13.312Z,3.83
2023-04-29T11:04:15.187Z,3.53
2023-04-29T11:09:29.620Z,4.35
2023-04-29T11:14:37.061Z,4.25
2023-04-29T11:19:42.337Z,3.90
2023-04-29T11:24:54.154Z,3.70
2023-04-29T11:29:58.584Z,4.35
2023-04-29T11:35:09.640Z,3.65
2023-04-29T11:40:12.269Z,3.55
2023-04-29T11:45:14.012Z,3.00
2023-04-29T11:50:17.829Z,2.83
2023-04-29T11:55:19.565Z,3.30
2023-04-29T12:00:21.017Z,3.40
2023-04-29T12:05:25.726Z,3.38
2023-04-29T12:10:27.227Z,2.47
2023-04-29T12:15:29.619Z,2.45
2023-04-29T12:20:31.150Z,2.35
2023-04-29T12:25:32.551Z,2.60
2023-04-29T12:30:34.806Z,2.45
2023-04-29T12:35:37.004Z,2.17
2023-04-29T12:40:38.644Z,2.10
2023-04-29T12:45:40.602Z,2.20
2023-04-29T12:50:42.122Z,2.05
2023-04-29T12:55:44.036Z,1.88
2023-04-29T13:00:45.524Z,1.90
2023-04-29T13:05:48.568Z,1.92
2023-04-29T13:10:49.970Z,1.75
2023-04-29T13:15:51.571Z,1.50
2023-04-29T13:20:53.780Z,1.50
2023-04-29T13:25:55.299Z,1.70
2023-04-29T13:30:56.716Z,1.52
2023-04-29T13:35:58.050Z,1.30
2023-04-29T13:40:59.452Z,1.40
2023-04-29T13:46:01.028Z,1.48
2023-04-29T14:06:18.922Z,1.65
2023-04-29T14:11:20.765Z,1.60
2023-04-29T14:16:22.236Z,2.03
2023-04-29T14:21:23.814Z,1.70
2023-04-29T14:26:28.484Z,1.40
2023-04-29T14:31:31.250Z,1.50
2023-04-29T14:36:32.793Z,1.80
2023-04-29T14:41:35.753Z,2.10
2023-04-29T14:46:37.133Z,2.00
2023-04-29T14:51:38.527Z,1.80
2023-04-29T14:56:39.914Z,1.88
2023-04-29T15:01:41.287Z,2.00
2023-04-29T15:06:43.218Z,1.80
2023-04-29T15:11:44.745Z,1.55
2023-04-29T15:16:46.824Z,1.88
2023-04-29T15:21:48.306Z,2.20
2023-04-29T15:26:51.862Z,2.22
2023-04-29T15:31:53.391Z,1.60
2023-04-29T15:36:56.358Z,2.47
2023-04-29T15:41:58.927Z,2.03
2023-04-29T15:47:00.421Z,1.90
2023-04-29T15:52:02.630Z,2.20
2023-04-29T15:57:04.260Z,3.88
2023-04-29T16:02:10.649Z,2.60
2023-04-29T16:07:12.089Z,3.03
2023-04-29T16:12:13.982Z,3.08
2023-04-29T16:17:15.490Z,2.58
2023-04-29T16:22:27.948Z,2.80
2023-04-29T16:27:30.090Z,3.28
2023-04-29T16:32:32.657Z,5.60
2023-04-29T16:37:34.166Z,6.82
2023-04-29T16:42:36.087Z,5.13
2023-04-29T16:47:40.789Z,4.47
2023-04-29T16:52:43.410Z,3.50
2023-04-29T16:57:44.824Z,3.30
2023-04-29T17:02:47.450Z,3.38
2023-04-29T17:07:49.899Z,3.22
2023-04-29T17:12:51.303Z,3.75
2023-04-29T17:17:54.997Z,3.97
2023-04-29T17:22:56.389Z,3.30
2023-04-29T17:27:57.769Z,3.40
2023-04-29T17:33:05.405Z,3.03
2023-04-29T17:38:06.913Z,7.25
2023-04-29T17:43:08.351Z,3.60
2023-04-29T17:48:10.178Z,2.95
2023-04-29T17:53:11.528Z,3.65
2023-04-29T17:58:13.036Z,3.10
2023-04-29T18:03:14.524Z,3.17
2023-04-29T18:08:15.916Z,3.05
2023-04-29T18:13:17.588Z,4.18
2023-04-29T18:18:19.077Z,5.10
2023-04-29T18:23:20.613Z,4.25
2023-04-29T18:28:25.127Z,3.83
2023-04-29T18:33:27.034Z,3.80
2023-04-29T18:38:28.429Z,4.30
2023-04-29T18:43:29.879Z,3.63
2023-04-29T18:48:31.447Z,4.35
2023-04-29T18:53:32.866Z,5.65
2023-04-29T18:58:34.356Z,4.68
2023-04-29T19:03:35.864Z,3.40
2023-04-29T19:08:37.272Z,4.03
2023-04-29T19:13:38.948Z,3.25
2023-04-29T19:18:40.367Z,3.13
2023-04-29T19:23:42.019Z,3.40
2023-04-29T19:28:43.446Z,3.42
2023-04-29T19:33:44.859Z,4.07
2023-04-29T19:38:46.960Z,3.60
2023-04-29T19:43:48.458Z,4.43
2023-04-29T19:48:49.869Z,4.15
2023-04-29T19:53:51.908Z,3.90
2023-04-29T19:58:53.884Z,4.05
2023-04-29T20:03:55.278Z,5.13
2023-04-29T20:08:56.697Z,4.63
2023-04-29T20:13:58.753Z,6.57
2023-04-29T20:19:00.093Z,9.70
2023-04-29T20:24:01.455Z,10.25
2023-04-29T20:29:02.912Z,15.20
2023-04-29T20:34:04.371Z,6.65
2023-04-29T20:39:06.896Z,5.55
2023-04-29T20:44:09.084Z,4.97
2023-04-29T20:49:10.393Z,5.72
2023-04-29T20:54:11.758Z,4.80
2023-04-29T20:59:13.385Z,5.43
2023-04-29T21:04:14.972Z,4.63
2023-04-29T21:09:17.691Z,4.63
2023-04-29T21:14:19.091Z,4.88
2023-04-29T21:19:20.695Z,4.47
2023-04-29T21:24:22.173Z,4.10
2023-04-29T21:29:23.583Z,4.30
2023-04-29T21:34:24.957Z,5.00
2023-04-29T21:39:26.376Z,5.53
2023-04-29T21:44:27.954Z,5.15
2023-04-29T21:49:29.522Z,4.68
2023-04-29T21:54:30.862Z,4.15
2023-04-29T21:59:34.496Z,4.40
2023-04-29T22:04:35.867Z,4.53
2023-04-29T22:09:37.446Z,4.38
2023-04-29T22:14:38.813Z,4.13
2023-04-29T22:19:40.520Z,3.85
2023-04-29T22:24:41.946Z,3.47
2023-04-29T22:29:43.387Z,3.67
2023-04-29T22:34:44.791Z,3.50
2023-04-29T22:39:46.356Z,4.65
2023-04-29T22:44:47.767Z,4.55
2023-04-29T22:49:49.091Z,4.55
2023-04-29T23:19:54.739Z,4.47
2023-04-29T23:24:56.282Z,4.00
2023-04-29T23:29:57.925Z,3.50
2023-04-29T23:34:59.319Z,3.38
2023-04-29T23:40:00.797Z,3.20
2023-04-29T23:45:04.628Z,3.42
2023-04-29T23:50:06.692Z,3.30
2023-04-29T23:55:08.857Z,2.92
